createdAt,value
2024-04-30T00:00:20.017Z,31.50
2024-04-30T00:02:49.827Z,31.50
2024-04-30T00:05:19.853Z,31.50
2024-04-30T00:07:49.751Z,31.50
2024-04-30T00:10:19.699Z,31.50
2024-04-30T00:12:49.584Z,31.50
2024-04-30T00:15:19.715Z,31.60
2024-04-30T00:17:50.389Z,31.60
2024-04-30T00:20:20.424Z,31.60
2024-04-30T00:22:50.285Z,31.60
2024-04-30T00:25:20.313Z,31.70
2024-04-30T00:27:51.346Z,31.80
2024-04-30T00:30:24.283Z,31.80
2024-04-30T00:32:54.173Z,31.80
2024-04-30T00:35:24.081Z,31.90
2024-04-30T00:37:53.879Z,31.90
2024-04-30T00:40:23.766Z,32.00
2024-04-30T00:42:53.583Z,32.00
2024-04-30T00:45:23.376Z,32.10
2024-04-30T00:47:54.310Z,32.10
2024-04-30T00:50:25.170Z,32.20
2024-04-30T00:52:56.251Z,32.30
2024-04-30T00:55:26.117Z,32.40
2024-04-30T00:57:56.045Z,32.40
2024-04-30T01:00:26.044Z,32.50
2024-04-30T01:02:55.904Z,32.50
2024-04-30T01:05:25.640Z,32.60
2024-04-30T01:07:55.427Z,32.70
2024-04-30T01:10:25.306Z,32.70
2024-04-30T01:12:58.140Z,32.80
2024-04-30T01:15:27.986Z,32.90
2024-04-30T01:17:58.087Z,33.00
2024-04-30T01:20:28.392Z,33.00
2024-04-30T01:22:58.267Z,33.10
2024-04-30T01:25:28.253Z,33.10
2024-04-30T01:27:58.239Z,33.20
2024-04-30T01:30:28.218Z,33.30
2024-04-30T01:32:58.302Z,33.30
2024-04-30T01:35:28.195Z,33.40
2024-04-30T01:37:58.069Z,33.40
2024-04-30T01:40:27.962Z,33.50
2024-04-30T01:42:57.874Z,33.60
2024-04-30T01:45:27.921Z,33.70
2024-04-30T01:47:57.961Z,33.80
2024-04-30T01:50:27.900Z,33.90
2024-04-30T01:52:57.811Z,34.10
2024-04-30T01:55:27.701Z,34.10
2024-04-30T01:57:57.713Z,34.30
2024-04-30T02:00:27.570Z,34.30
2024-04-30T02:02:57.495Z,34.50
2024-04-30T02:05:27.359Z,34.50
2024-04-30T02:08:01.348Z,34.60
2024-04-30T02:10:31.242Z,34.70
2024-04-30T02:13:02.495Z,34.70
2024-04-30T02:15:32.448Z,34.80
2024-04-30T02:18:02.313Z,34.90
2024-04-30T02:20:32.377Z,34.90
2024-04-30T02:23:05.037Z,35.00
2024-04-30T02:25:35.238Z,35.10
2024-04-30T02:28:17.071Z,35.10
2024-04-30T02:31:05.010Z,35.20
2024-04-30T02:33:53.440Z,35.30
2024-04-30T02:36:23.321Z,35.40
2024-04-30T02:38:53.385Z,35.40
2024-04-30T02:41:23.312Z,35.50
2024-04-30T02:43:53.189Z,35.50
2024-04-30T02:46:25.996Z,35.60
2024-04-30T02:49:35.224Z,35.70
2024-04-30T02:52:05.484Z,35.80
2024-04-30T02:54:35.562Z,35.80
2024-04-30T02:57:05.589Z,35.90
2024-04-30T02:59:45.112Z,35.90
2024-04-30T03:02:20.024Z,36.00
2024-04-30T03:04:50.180Z,36.10
2024-04-30T03:07:20.117Z,36.10
2024-04-30T03:09:49.964Z,36.20
2024-04-30T03:12:20.059Z,36.20
2024-04-30T03:14:49.965Z,36.30
2024-04-30T03:17:19.925Z,36.40
2024-04-30T03:19:49.854Z,36.50
2024-04-30T03:22:19.889Z,36.60
2024-04-30T03:24:49.887Z,36.70
2024-04-30T03:27:20.096Z,36.80
2024-04-30T03:29:49.897Z,36.80
2024-04-30T03:32:19.622Z,36.80
2024-04-30T03:34:49.494Z,36.90
2024-04-30T03:37:19.502Z,37.00
2024-04-30T03:39:49.320Z,37.00
2024-04-30T03:42:20.173Z,37.10
2024-04-30T03:44:54.133Z,37.20
2024-04-30T03:47:24.296Z,37.20
2024-04-30T03:49:54.087Z,37.30
2024-04-30T03:52:23.931Z,37.40
2024-04-30T03:54:53.759Z,37.50
2024-04-30T03:57:23.521Z,37.60
2024-04-30T03:59:53.227Z,37.60
2024-04-30T04:02:22.990Z,37.60
2024-04-30T04:04:52.948Z,37.70
2024-04-30T04:07:22.842Z,37.80
2024-04-30T04:09:52.569Z,37.90
2024-04-30T04:12:40.466Z,38.00
2024-04-30T04:15:10.860Z,38.10
2024-04-30T04:17:40.835Z,38.20
2024-04-30T04:20:11.074Z,38.20
2024-04-30T04:22:40.985Z,38.40
2024-04-30T04:25:10.932Z,38.50
2024-04-30T04:27:40.887Z,38.60
2024-04-30T04:30:11.168Z,38.70
2024-04-30T04:32:41.002Z,38.80
2024-04-30T04:35:10.833Z,39.00
2024-04-30T04:37:40.884Z,39.10
2024-04-30T04:40:11.188Z,39.20
2024-04-30T04:42:40.992Z,39.30
2024-04-30T04:45:11.499Z,39.30
2024-04-30T04:47:41.309Z,39.50
2024-04-30T04:50:11.262Z,39.60
2024-04-30T04:52:41.450Z,39.70
2024-04-30T04:55:11.325Z,39.80
2024-04-30T04:57:41.114Z,39.90
2024-04-30T05:00:11.390Z,40.00
2024-04-30T05:02:41.219Z,40.00
2024-04-30T05:05:11.059Z,40.10
2024-04-30T05:07:40.841Z,40.20
2024-04-30T05:10:10.804Z,40.30
2024-04-30T05:12:40.538Z,40.40
2024-04-30T05:15:10.457Z,40.50
2024-04-30T05:17:40.394Z,40.60
2024-04-30T05:20:10.767Z,40.70
2024-04-30T05:22:40.631Z,40.80
2024-04-30T05:25:10.558Z,40.90
2024-04-30T05:27:41.040Z,40.90
2024-04-30T05:30:11.379Z,40.90
2024-04-30T05:32:41.863Z,41.00
2024-04-30T05:35:12.775Z,41.10
2024-04-30T05:37:46.554Z,41.30
2024-04-30T05:40:16.785Z,41.30
2024-04-30T05:42:46.605Z,41.40
2024-04-30T05:45:17.155Z,41.50
2024-04-30T05:47:47.007Z,41.50
2024-04-30T05:50:17.041Z,41.60
2024-04-30T05:52:46.842Z,41.50
2024-04-30T05:55:16.752Z,41.50
2024-04-30T05:57:46.472Z,41.50
2024-04-30T06:00:16.473Z,41.50
2024-04-30T06:02:46.524Z,41.50
2024-04-30T06:05:16.752Z,41.50
2024-04-30T06:07:46.892Z,41.60
2024-04-30T06:10:16.854Z,41.60
2024-04-30T06:12:46.716Z,41.70
2024-04-30T06:15:16.514Z,41.70
2024-04-30T06:17:46.543Z,41.90
2024-04-30T06:20:16.521Z,41.90
2024-04-30T06:22:46.505Z,41.90
2024-04-30T06:25:16.479Z,41.90
2024-04-30T06:27:47.902Z,41.90
2024-04-30T06:30:17.894Z,42.00
2024-04-30T06:32:48.033Z,42.10
2024-04-30T06:35:17.948Z,42.10
2024-04-30T06:37:48.037Z,42.10
2024-04-30T06:40:18.052Z,42.10
2024-04-30T06:42:48.208Z,42.10
2024-04-30T06:45:19.952Z,42.20
2024-04-30T06:47:49.819Z,42.20
2024-04-30T06:50:19.731Z,42.20
2024-04-30T06:52:49.713Z,42.20
2024-04-30T06:55:19.512Z,42.30
2024-04-30T06:57:49.483Z,42.40
2024-04-30T07:00:19.540Z,42.40
2024-04-30T07:02:49.333Z,42.40
2024-04-30T07:05:19.239Z,42.50
2024-04-30T07:07:49.134Z,42.60
2024-04-30T07:10:18.900Z,42.70
2024-04-30T07:12:48.775Z,42.70
2024-04-30T07:15:19.545Z,42.70
2024-04-30T07:17:49.388Z,42.80
2024-04-30T07:20:20.088Z,42.80
2024-04-30T07:22:50.081Z,42.80
2024-04-30T07:25:19.828Z,42.70
2024-04-30T07:27:50.312Z,42.60
2024-04-30T07:30:21.257Z,42.50
2024-04-30T07:32:51.107Z,42.50
2024-04-30T07:35:21.093Z,42.50
2024-04-30T07:37:51.486Z,42.50
2024-04-30T07:40:21.396Z,42.50
2024-04-30T07:42:51.197Z,42.50
2024-04-30T07:45:20.964Z,42.50
2024-04-30T07:47:51.879Z,42.60
2024-04-30T07:50:21.918Z,42.70
2024-04-30T07:52:51.797Z,42.70
2024-04-30T07:55:21.807Z,42.70
2024-04-30T07:57:51.570Z,42.70
2024-04-30T08:00:21.519Z,42.60
2024-04-30T08:02:51.563Z,42.70
2024-04-30T08:05:21.434Z,42.70
2024-04-30T08:07:51.182Z,42.80
2024-04-30T08:10:21.050Z,42.90
2024-04-30T08:12:50.798Z,42.90
2024-04-30T08:15:20.723Z,42.90
2024-04-30T08:17:50.630Z,42.90
2024-04-30T08:20:20.595Z,42.90
2024-04-30T08:22:50.404Z,43.00
2024-04-30T08:25:20.142Z,42.90
2024-04-30T08:27:49.991Z,43.00
2024-04-30T08:30:19.973Z,43.00
2024-04-30T08:32:50.386Z,42.90
2024-04-30T08:35:20.448Z,42.80
2024-04-30T08:37:54.995Z,42.80
2024-04-30T08:40:30.950Z,42.70
2024-04-30T08:43:02.041Z,42.70
2024-04-30T08:45:32.943Z,42.60
2024-04-30T08:48:06.685Z,42.50
2024-04-30T08:50:40.077Z,42.40
2024-04-30T08:53:12.483Z,42.40
2024-04-30T08:55:44.388Z,42.40
2024-04-30T08:58:14.339Z,42.40
2024-04-30T09:00:44.349Z,42.40
2024-04-30T09:03:14.308Z,42.50
2024-04-30T09:05:47.896Z,42.50
2024-04-30T09:08:18.313Z,42.40
2024-04-30T09:10:49.467Z,42.40
2024-04-30T09:13:21.120Z,42.40
2024-04-30T09:16:05.439Z,42.40
2024-04-30T09:18:35.418Z,42.40
2024-04-30T09:21:16.229Z,42.40
2024-04-30T09:23:47.415Z,42.30
2024-04-30T09:26:17.284Z,42.20
2024-04-30T09:28:57.212Z,42.30
2024-04-30T09:31:37.745Z,42.20
2024-04-30T09:34:07.753Z,42.20
2024-04-30T09:36:41.461Z,42.10
2024-04-30T09:39:12.913Z,42.20
2024-04-30T09:41:43.326Z,42.20
2024-04-30T09:44:14.149Z,42.20
2024-04-30T09:46:49.228Z,42.10
2024-04-30T09:49:20.277Z,42.10
2024-04-30T09:51:56.368Z,42.00
2024-04-30T09:54:29.716Z,42.00
2024-04-30T09:57:02.775Z,41.90
2024-04-30T09:59:33.780Z,41.90
2024-04-30T10:02:10.542Z,41.80
2024-04-30T10:04:42.810Z,41.80
2024-04-30T10:07:14.251Z,41.70
2024-04-30T10:09:57.954Z,41.70
2024-04-30T10:12:30.840Z,41.60
2024-04-30T10:15:16.461Z,41.50
2024-04-30T10:17:47.600Z,41.40
2024-04-30T10:20:27.885Z,41.30
2024-04-30T10:22:58.050Z,41.30
2024-04-30T10:25:28.314Z,41.20
2024-04-30T10:28:15.560Z,41.20
2024-04-30T10:30:45.251Z,41.10
2024-04-30T10:33:15.406Z,41.10
2024-04-30T10:35:46.247Z,41.00
2024-04-30T10:38:16.132Z,41.00
2024-04-30T10:40:46.049Z,40.90
2024-04-30T10:43:23.930Z,40.80
2024-04-30T10:45:54.225Z,40.70
2024-04-30T10:48:24.115Z,40.60
2024-04-30T10:51:05.524Z,40.60
2024-04-30T10:53:35.694Z,40.50
2024-04-30T10:56:05.916Z,40.40
2024-04-30T10:58:35.871Z,40.30
2024-04-30T11:01:06.161Z,40.20
2024-04-30T11:03:36.184Z,40.10
2024-04-30T11:06:06.462Z,39.90
2024-04-30T11:08:37.779Z,39.70
2024-04-30T11:11:19.531Z,39.50
2024-04-30T11:13:50.288Z,39.30
2024-04-30T11:16:20.300Z,39.10
2024-04-30T11:18:50.170Z,38.90
2024-04-30T11:21:24.519Z,38.80
2024-04-30T11:23:54.342Z,38.80
2024-04-30T11:26:24.091Z,38.70
2024-04-30T11:29:08.847Z,38.60
2024-04-30T11:31:43.971Z,38.60
2024-04-30T11:34:13.957Z,38.50
2024-04-30T11:36:43.970Z,38.50
2024-04-30T11:39:14.287Z,38.40
2024-04-30T11:41:49.026Z,38.40
2024-04-30T11:44:26.862Z,38.40
2024-04-30T11:46:56.774Z,38.30
2024-04-30T11:49:26.647Z,38.30
2024-04-30T11:52:02.136Z,38.30
2024-04-30T11:54:32.865Z,38.20
2024-04-30T11:57:02.839Z,38.20
2024-04-30T11:59:32.847Z,38.10
2024-04-30T12:02:02.810Z,38.10
2024-04-30T12:04:32.782Z,38.00
2024-04-30T12:07:02.841Z,38.00
2024-04-30T12:09:32.730Z,38.00
2024-04-30T12:12:02.526Z,38.00
2024-04-30T12:14:32.588Z,38.00
2024-04-30T12:17:02.613Z,37.90
2024-04-30T12:19:32.616Z,37.90
2024-04-30T12:22:02.498Z,37.80
2024-04-30T12:24:32.346Z,37.80
2024-04-30T12:27:02.396Z,37.80
2024-04-30T12:29:32.570Z,37.70
2024-04-30T12:32:02.444Z,37.70
2024-04-30T12:34:32.457Z,37.70
2024-04-30T12:37:03.620Z,37.70
2024-04-30T12:39:33.504Z,37.60
2024-04-30T12:42:03.315Z,37.50
2024-04-30T12:44:37.070Z,37.60
2024-04-30T12:47:08.298Z,37.50
2024-04-30T12:49:40.115Z,37.50
2024-04-30T12:52:10.176Z,37.40
2024-04-30T12:54:40.084Z,37.40
2024-04-30T12:57:10.008Z,37.40
2024-04-30T12:59:41.975Z,37.40
2024-04-30T13:02:11.919Z,37.30
2024-04-30T13:04:41.798Z,37.30
2024-04-30T13:07:11.842Z,37.30
2024-04-30T13:09:42.487Z,37.20
2024-04-30T13:12:12.559Z,37.20
2024-04-30T13:14:42.365Z,37.20
2024-04-30T13:17:12.331Z,37.10
2024-04-30T13:19:42.395Z,37.10
2024-04-30T13:22:12.375Z,37.10
2024-04-30T13:24:42.286Z,37.00
2024-04-30T13:27:16.465Z,37.00
2024-04-30T13:29:47.077Z,37.00
2024-04-30T13:32:16.841Z,37.00
2024-04-30T13:34:46.718Z,36.90
2024-04-30T13:37:16.722Z,36.90
2024-04-30T13:39:46.569Z,36.90
2024-04-30T13:42:16.382Z,36.80
2024-04-30T13:44:46.952Z,36.80
2024-04-30T13:47:16.741Z,36.80
2024-04-30T13:49:48.791Z,36.70
2024-04-30T13:52:18.763Z,36.70
2024-04-30T13:54:48.602Z,36.70
2024-04-30T13:57:20.231Z,36.70
2024-04-30T13:59:51.068Z,36.60
2024-04-30T14:02:21.926Z,36.60
2024-04-30T14:04:55.306Z,36.60
2024-04-30T14:07:25.186Z,36.50
2024-04-30T14:09:54.920Z,36.50
2024-04-30T14:12:24.642Z,36.40
2024-04-30T14:14:54.520Z,36.40
2024-04-30T14:17:24.581Z,36.40
2024-04-30T14:19:54.526Z,36.30
2024-04-30T14:22:24.509Z,36.30
2024-04-30T14:24:54.494Z,36.30
2024-04-30T14:27:25.540Z,36.30
2024-04-30T14:29:55.494Z,36.30
2024-04-30T14:32:29.231Z,36.20
2024-04-30T14:34:59.478Z,36.20
2024-04-30T14:37:29.608Z,36.10
2024-04-30T14:39:59.587Z,36.10
2024-04-30T14:42:29.608Z,36.00
2024-04-30T14:44:59.558Z,36.00
2024-04-30T14:47:29.618Z,36.00
2024-04-30T14:49:59.664Z,36.00
2024-04-30T14:52:29.813Z,36.00
2024-04-30T14:55:00.559Z,36.00
2024-04-30T14:57:30.686Z,36.00
2024-04-30T15:00:00.564Z,36.00
2024-04-30T15:02:30.537Z,36.00
2024-04-30T15:05:03.434Z,36.00
2024-04-30T15:07:33.895Z,36.00
2024-04-30T15:10:03.878Z,36.00
2024-04-30T15:12:34.089Z,36.00
2024-04-30T15:15:03.959Z,35.90
2024-04-30T15:17:34.187Z,35.90
2024-04-30T15:20:04.301Z,35.90
2024-04-30T15:22:34.528Z,35.90
2024-04-30T15:25:04.584Z,35.90
2024-04-30T15:27:35.398Z,35.90
2024-04-30T15:30:06.708Z,35.80
2024-04-30T15:32:36.626Z,35.80
2024-04-30T15:35:06.820Z,35.70
2024-04-30T15:37:37.462Z,35.70
2024-04-30T15:40:08.019Z,35.70
2024-04-30T15:42:37.821Z,35.70
2024-04-30T15:45:08.194Z,35.60
2024-04-30T15:47:39.019Z,35.60
2024-04-30T15:50:09.256Z,35.60
2024-04-30T15:52:39.772Z,35.60
2024-04-30T15:55:09.822Z,35.50
2024-04-30T15:57:39.558Z,35.50
2024-04-30T16:00:10.227Z,35.40
2024-04-30T16:02:42.222Z,35.40
2024-04-30T16:05:12.640Z,35.40
2024-04-30T16:07:42.768Z,35.40
2024-04-30T16:10:15.451Z,35.30
2024-04-30T16:12:47.149Z,35.30
2024-04-30T16:15:17.103Z,35.30
2024-04-30T16:17:47.874Z,35.30
2024-04-30T16:20:18.446Z,35.30
2024-04-30T16:22:48.200Z,35.20
2024-04-30T16:25:18.148Z,35.20
2024-04-30T16:27:47.979Z,35.10
2024-04-30T16:30:17.836Z,35.10
2024-04-30T16:32:47.977Z,35.10
2024-04-30T16:35:17.760Z,35.10
2024-04-30T16:37:47.476Z,35.00
2024-04-30T16:40:17.728Z,35.00
2024-04-30T16:42:47.514Z,34.90
2024-04-30T16:45:17.406Z,34.90
2024-04-30T16:47:47.345Z,34.80
2024-04-30T16:50:17.254Z,34.80
2024-04-30T16:52:47.720Z,34.70
2024-04-30T16:55:17.548Z,34.60
2024-04-30T16:57:47.330Z,34.60
2024-04-30T17:00:17.494Z,34.60
2024-04-30T17:02:47.313Z,34.50
2024-04-30T17:05:17.239Z,34.50
2024-04-30T17:07:47.442Z,34.40
2024-04-30T17:10:17.416Z,34.40
2024-04-30T17:12:47.291Z,34.40
2024-04-30T17:15:17.441Z,34.30
2024-04-30T17:17:47.306Z,34.30
2024-04-30T17:20:17.928Z,34.30
2024-04-30T17:22:47.839Z,34.20
2024-04-30T17:25:17.751Z,34.20
2024-04-30T17:27:47.649Z,34.20
2024-04-30T17:30:18.523Z,34.10
2024-04-30T17:32:48.527Z,34.10
2024-04-30T17:35:18.439Z,34.10
2024-04-30T17:37:48.366Z,34.10
2024-04-30T17:40:18.231Z,34.00
2024-04-30T17:42:48.174Z,34.00
2024-04-30T17:45:18.144Z,34.00
2024-04-30T17:47:48.134Z,33.90
2024-04-30T17:50:18.142Z,33.90
2024-04-30T17:52:48.016Z,33.90
2024-04-30T17:55:17.849Z,33.80
2024-04-30T17:57:47.741Z,33.80
2024-04-30T18:00:18.074Z,33.80
2024-04-30T18:02:48.062Z,33.70
2024-04-30T18:05:18.107Z,33.60
2024-04-30T18:07:48.001Z,33.60
2024-04-30T18:10:20.826Z,33.60
2024-04-30T18:12:55.842Z,33.60
2024-04-30T18:15:25.919Z,33.50
2024-04-30T18:17:56.150Z,33.40
2024-04-30T18:20:26.065Z,33.40
2024-04-30T18:22:55.879Z,33.40
2024-04-30T18:25:25.684Z,33.40
2024-04-30T18:27:55.735Z,33.40
2024-04-30T18:30:26.574Z,33.40
2024-04-30T18:32:56.515Z,33.30
2024-04-30T18:35:27.255Z,33.30
2024-04-30T18:37:57.134Z,33.30
2024-04-30T18:40:26.987Z,33.30
2024-04-30T18:42:56.909Z,33.30
2024-04-30T18:45:26.880Z,33.30
2024-04-30T18:47:56.805Z,33.30
2024-04-30T18:50:26.737Z,33.20
2024-04-30T18:52:56.580Z,33.20
2024-04-30T18:55:26.637Z,33.20
2024-04-30T18:57:56.557Z,33.20
2024-04-30T19:00:26.610Z,33.10
2024-04-30T19:02:57.211Z,33.10
2024-04-30T19:05:27.140Z,33.10
2024-04-30T19:07:56.979Z,33.10
2024-04-30T19:10:27.385Z,33.00
2024-04-30T19:12:59.563Z,33.00
2024-04-30T19:15:29.702Z,32.90
2024-04-30T19:17:59.877Z,33.00
2024-04-30T19:20:29.964Z,32.90
2024-04-30T19:23:00.082Z,32.90
2024-04-30T19:25:30.041Z,32.90
2024-04-30T19:28:02.240Z,32.90
2024-04-30T19:30:32.145Z,32.80
2024-04-30T19:33:05.318Z,32.80
2024-04-30T19:35:35.091Z,32.70
2024-04-30T19:38:08.633Z,32.70
2024-04-30T19:40:41.901Z,32.70
2024-04-30T19:43:14.464Z,32.70
2024-04-30T19:45:44.680Z,32.60
2024-04-30T19:48:17.835Z,32.60
2024-04-30T19:50:49.291Z,32.60
2024-04-30T19:53:19.117Z,32.50
2024-04-30T19:55:48.806Z,32.50
2024-04-30T19:58:18.603Z,32.40
2024-04-30T20:00:48.417Z,32.40
2024-04-30T20:03:18.440Z,32.40
2024-04-30T20:05:48.729Z,32.40
2024-04-30T20:08:18.560Z,32.40
2024-04-30T20:10:48.362Z,32.30
2024-04-30T20:13:19.946Z,32.30
2024-04-30T20:15:49.761Z,32.30
2024-04-30T20:18:19.661Z,32.30
2024-04-30T20:20:49.383Z,32.30
2024-04-30T20:23:19.185Z,32.30
2024-04-30T20:25:48.876Z,32.30
2024-04-30T20:28:18.820Z,32.30
2024-04-30T20:30:48.737Z,32.30
2024-04-30T20:33:18.612Z,32.30
2024-04-30T20:35:48.417Z,32.30
2024-04-30T20:38:18.127Z,32.30
2024-04-30T20:40:47.920Z,32.30
2024-04-30T20:43:17.764Z,32.30
2024-04-30T20:45:47.510Z,32.30
2024-04-30T20:48:18.928Z,32.20
2024-04-30T20:50:48.839Z,32.30
2024-04-30T20:53:18.826Z,32.30
2024-04-30T20:55:50.420Z,32.20
2024-04-30T20:58:20.407Z,32.30
2024-04-30T21:00:52.540Z,32.30
2024-04-30T21:03:23.144Z,32.20
2024-04-30T21:05:53.040Z,32.20
2024-04-30T21:08:26.017Z,32.20
2024-04-30T21:10:55.962Z,32.20
2024-04-30T21:13:25.887Z,32.10
2024-04-30T21:15:55.805Z,32.10
2024-04-30T21:18:25.897Z,32.10
2024-04-30T21:20:55.761Z,32.00
2024-04-30T21:23:25.790Z,32.00
2024-04-30T21:25:55.637Z,32.00
2024-04-30T21:28:25.792Z,32.00
2024-04-30T21:30:56.559Z,32.00
2024-04-30T21:33:27.022Z,31.90
2024-04-30T21:35:57.302Z,31.90
2024-04-30T21:38:27.289Z,31.90
2024-04-30T21:40:57.358Z,31.90
2024-04-30T21:43:27.209Z,31.90
2024-04-30T21:45:57.175Z,31.90
2024-04-30T21:48:27.209Z,31.90
2024-04-30T21:50:57.222Z,31.90
2024-04-30T21:53:27.054Z,31.90
2024-04-30T21:55:56.878Z,31.80
2024-04-30T21:58:27.223Z,31.80
2024-04-30T22:00:57.212Z,31.80
2024-04-30T22:03:27.219Z,31.80
2024-04-30T22:05:58.895Z,31.70
2024-04-30T22:08:29.015Z,31.70
2024-04-30T22:10:58.865Z,31.70
2024-04-30T22:13:28.824Z,31.70
2024-04-30T22:16:00.881Z,31.70
2024-04-30T22:18:34.779Z,31.70
2024-04-30T22:21:04.847Z,31.70
2024-04-30T22:23:37.218Z,31.60
2024-04-30T22:26:08.750Z,31.60
2024-04-30T22:28:38.659Z,31.60
2024-04-30T22:31:09.465Z,31.60
2024-04-30T22:33:39.632Z,31.50
2024-04-30T22:36:10.070Z,31.50
2024-04-30T22:38:40.171Z,31.50
2024-04-30T22:41:09.992Z,31.40
2024-04-30T22:43:39.811Z,31.40
2024-04-30T22:46:16.592Z,31.40
2024-04-30T22:48:46.625Z,31.30
2024-04-30T22:51:20.929Z,31.30
2024-04-30T22:53:54.843Z,31.20
2024-04-30T22:56:25.000Z,31.20
2024-04-30T22:58:54.999Z,31.20
2024-04-30T23:01:25.096Z,31.20
2024-04-30T23:03:55.197Z,31.20
2024-04-30T23:06:25.142Z,31.20
2024-04-30T23:08:55.101Z,31.20
2024-04-30T23:11:25.834Z,31.20
2024-04-30T23:13:55.808Z,31.20
2024-04-30T23:16:25.654Z,31.20
2024-04-30T23:18:55.607Z,31.20
2024-04-30T23:21:25.553Z,31.30
2024-04-30T23:23:55.467Z,31.30
2024-04-30T23:26:25.364Z,31.30
2024-04-30T23:28:55.919Z,31.30
2024-04-30T23:31:25.845Z,31.30
2024-04-30T23:33:56.065Z,31.40
2024-04-30T23:36:26.545Z,31.40
2024-04-30T23:38:56.488Z,31.40
2024-04-30T23:41:26.472Z,31.40
2024-04-30T23:43:56.472Z,31.40
2024-04-30T23:46:26.486Z,31.40
2024-04-30T23:48:56.589Z,31.40
2024-04-30T23:51:26.563Z,31.50
2024-04-30T23:53:56.470Z,31.50
2024-04-30T23:56:26.317Z,31.50
2024-04-30T23:58:56.183Z,31.50
